Time;durP1;ratioP1;P1;durP2;ratioP2;P2;SDS_P1;SDS_P2;PMS_P1;PMS_P2;Temp;Humidity;BMP_temperature;BMP_pressure;BME280_temperature;BME280_humidity;BME280_pressure;Samples;Min_cycle;Max_cycle;Signal;HPM_P1;HPM_P2
2022/08/26 00:02:02;;;;;;;30.48;25.85;;;22.20;99.90;;;;;;5072966;28;20032;-72
2022/08/26 00:04:28;;;;;;;28.67;22.98;;;22.10;99.90;;;;;;5072191;28;20040;-72
2022/08/26 00:06:55;;;;;;;28.00;25.00;;;22.10;99.90;;;;;;5073565;28;20396;-72
2022/08/26 00:09:22;;;;;;;25.58;22.88;;;22.20;99.90;;;;;;5073144;28;20025;-72
2022/08/26 00:11:47;;;;;;;30.48;24.67;;;22.10;99.90;;;;;;5073447;28;20040;-72
2022/08/26 00:14:14;;;;;;;25.70;21.75;;;22.10;99.90;;;;;;5073616;28;20101;-71
2022/08/26 00:16:40;;;;;;;24.15;20.33;;;22.10;99.90;;;;;;5072533;28;20055;-74
2022/08/26 00:19:06;;;;;;;26.48;22.13;;;22.50;99.90;;;;;;5073311;28;20050;-71
2022/08/26 00:21:32;;;;;;;29.95;20.95;;;22.00;99.90;;;;;;5073406;28;20302;-71
2022/08/26 00:23:57;;;;;;;31.13;21.90;;;22.00;99.90;;;;;;5072499;28;20048;-73
2022/08/26 00:26:23;;;;;;;30.58;20.92;;;22.00;99.90;;;;;;5072902;28;20033;-72
2022/08/26 00:28:49;;;;;;;29.73;18.85;;;21.90;99.90;;;;;;5072239;28;20052;-74
2022/08/26 00:31:15;;;;;;;26.13;19.48;;;21.90;99.90;;;;;;5072005;28;20491;-73
2022/08/26 00:33:40;;;;;;;30.02;19.95;;;21.90;99.90;;;;;;5071970;28;20045;-72
2022/08/26 00:36:07;;;;;;;27.20;18.83;;;21.90;99.90;;;;;;5072598;28;20477;-73
2022/08/26 00:38:34;;;;;;;28.25;18.45;;;21.80;99.90;;;;;;5072306;28;20126;-73
2022/08/26 00:41:00;;;;;;;23.30;17.17;;;21.80;99.90;;;;;;5073269;28;20048;-72
2022/08/26 00:43:31;;;;;;;30.20;18.20;;;21.80;99.90;;;;;;5072521;28;20044;-74
2022/08/26 00:46:03;;;;;;;32.17;18.70;;;21.80;99.90;;;;;;5073097;28;20055;-74
2022/08/26 00:48:31;;;;;;;26.48;18.40;;;21.80;99.90;;;;;;5072743;28;20137;-73
2022/08/26 00:51:01;;;;;;;30.65;18.98;;;22.00;99.90;;;;;;5071979;28;20124;-74
2022/08/26 00:53:35;;;;;;;34.05;18.45;;;21.90;99.90;;;;;;5072734;28;20044;-73
2022/08/26 00:56:05;;;;;;;25.88;17.70;;;21.80;99.90;;;;;;5072334;28;20411;-73
2022/08/26 00:58:32;;;;;;;28.25;17.23;;;21.80;99.90;;;;;;5071788;28;20068;-72
2022/08/26 01:00:59;;;;;;;24.20;16.90;;;21.80;99.90;;;;;;5072490;28;20051;-72
2022/08/26 01:03:27;;;;;;;23.02;15.27;;;22.00;99.90;;;;;;5072631;28;20037;-72
2022/08/26 01:05:56;;;;;;;23.60;16.67;;;21.80;99.90;;;;;;5053679;28;20169;-72
2022/08/26 01:08:23;;;;;;;35.08;16.75;;;21.90;99.90;;;;;;5071076;28;20259;-72
2022/08/26 01:10:50;;;;;;;27.40;16.20;;;21.80;99.90;;;;;;5072238;28;20079;-72
2022/08/26 01:13:16;;;;;;;24.17;15.23;;;21.80;99.90;;;;;;5072214;28;20032;-73
2022/08/26 01:15:46;;;;;;;26.17;14.90;;;21.80;99.90;;;;;;5070482;28;20040;-74
2022/08/26 01:18:13;;;;;;;21.17;14.55;;;21.80;99.90;;;;;;5054240;28;20033;-76
2022/08/26 01:21:04;;;;;;;26.70;14.90;;;21.80;99.90;;;;;;5071504;28;20049;-75
2022/08/26 01:23:37;;;;;;;26.05;15.02;;;21.80;99.90;;;;;;5066640;28;20520;-74
2022/08/26 01:26:09;;;;;;;24.77;14.60;;;21.90;99.90;;;;;;5070881;28;20048;-74
2022/08/26 01:28:37;;;;;;;28.55;16.83;;;21.80;99.90;;;;;;5071630;28;20135;-75
2022/08/26 01:31:06;;;;;;;27.63;15.35;;;21.70;99.90;;;;;;5070839;28;20048;-75
2022/08/26 01:33:45;;;;;;;27.63;15.73;;;21.70;99.90;;;;;;5070030;28;20393;-72
2022/08/26 01:36:11;;;;;;;25.27;16.52;;;21.70;99.90;;;;;;5070203;28;20119;-75
2022/08/26 01:38:38;;;;;;;28.63;17.92;;;21.70;99.90;;;;;;5071728;28;20042;-74
2022/08/26 01:41:06;;;;;;;28.17;15.15;;;21.70;99.90;;;;;;5070984;28;20063;-73
2022/08/26 01:43:34;;;;;;;24.63;16.27;;;21.70;99.90;;;;;;5071647;28;20500;-71
2022/08/26 01:46:01;;;;;;;26.33;16.05;;;21.70;99.90;;;;;;5071252;28;20397;-71
2022/08/26 01:48:30;;;;;;;30.58;17.35;;;21.60;99.90;;;;;;5069588;28;20130;-72
2022/08/26 01:50:57;;;;;;;28.60;15.23;;;21.60;99.90;;;;;;5071476;28;20080;-72
2022/08/26 01:53:23;;;;;;;29.40;17.60;;;21.60;99.90;;;;;;5070145;28;20082;-72
2022/08/26 01:55:54;;;;;;;26.58;15.73;;;21.60;99.90;;;;;;5070582;28;20036;-72
2022/08/26 01:58:25;;;;;;;25.85;16.40;;;21.60;99.90;;;;;;5071358;28;20180;-72
2022/08/26 02:00:51;;;;;;;29.25;17.48;;;21.50;99.90;;;;;;5069533;28;20373;-72
2022/08/26 02:03:20;;;;;;;32.63;16.90;;;21.90;99.90;;;;;;5071462;28;20040;-71
2022/08/26 02:05:59;;;;;;;28.88;18.65;;;21.50;99.90;;;;;;5071443;28;20466;-72
2022/08/26 02:08:30;;;;;;;23.98;15.77;;;21.50;99.90;;;;;;5064090;28;20381;-72
2022/08/26 02:10:56;;;;;;;26.95;16.20;;;21.40;99.90;;;;;;5071272;28;20084;-72
2022/08/26 02:13:25;;;;;;;31.52;17.67;;;22.00;99.90;;;;;;5071215;28;20075;-72
2022/08/26 02:15:52;;;;;;;27.02;16.17;;;21.40;99.90;;;;;;5070177;28;20044;-74
2022/08/26 02:18:18;;;;;;;28.65;16.20;;;21.40;99.90;;;;;;5070954;28;20049;-73
2022/08/26 02:20:44;;;;;;;27.25;15.20;;;21.40;99.90;;;;;;5071030;28;20055;-71
2022/08/26 02:23:10;;;;;;;28.70;15.90;;;21.40;99.90;;;;;;5070503;28;20032;-72
2022/08/26 02:26:03;;;;;;;31.05;16.50;;;21.40;99.90;;;;;;5070833;28;20083;-72
2022/08/26 02:28:34;;;;;;;25.00;15.30;;;21.40;99.90;;;;;;5063253;28;20063;-72
2022/08/26 02:31:00;;;;;;;29.20;14.18;;;21.10;99.90;;;;;;5070144;28;20047;-71
2022/08/26 02:33:28;;;;;;;29.75;15.23;;;21.40;99.90;;;;;;5071285;28;20052;-72
2022/08/26 02:35:53;;;;;;;27.70;14.68;;;21.30;99.90;;;;;;5068940;28;20433;-72
2022/08/26 02:38:19;;;;;;;22.42;13.73;;;21.30;99.90;;;;;;5070863;28;20484;-74
2022/08/26 02:40:44;;;;;;;29.40;15.00;;;22.00;99.90;;;;;;5071160;28;20423;-72
2022/08/26 02:43:11;;;;;;;27.58;15.93;;;22.10;99.90;;;;;;5070252;28;20193;-72
2022/08/26 02:45:38;;;;;;;24.92;15.02;;;21.30;99.90;;;;;;5070488;28;20483;-72
2022/08/26 02:48:13;;;;;;;27.33;14.40;;;21.30;99.90;;;;;;5070658;28;20048;-73
2022/08/26 02:50:39;;;;;;;25.17;14.15;;;21.30;99.90;;;;;;5070236;28;20400;-72
2022/08/26 02:53:05;;;;;;;28.02;13.77;;;21.20;99.90;;;;;;5070350;28;20506;-72
2022/08/26 02:55:31;;;;;;;24.48;14.20;;;21.30;99.90;;;;;;5070237;28;20072;-74
2022/08/26 02:57:57;;;;;;;22.85;12.98;;;21.30;99.90;;;;;;5069948;28;20084;-73
2022/08/26 03:00:23;;;;;;;26.58;13.38;;;21.30;99.90;;;;;;5070546;28;20090;-72
2022/08/26 03:02:49;;;;;;;23.60;12.43;;;21.30;99.90;;;;;;5070544;28;20063;-74
2022/08/26 03:05:16;;;;;;;23.15;12.32;;;21.20;99.90;;;;;;5068251;28;20044;-72
2022/08/26 03:07:42;;;;;;;24.45;12.07;;;21.50;99.90;;;;;;5070826;28;20124;-72
2022/08/26 03:10:08;;;;;;;24.05;11.45;;;21.20;99.90;;;;;;5070241;28;20127;-72
2022/08/26 03:12:34;;;;;;;20.90;11.98;;;21.20;99.90;;;;;;5070063;28;20456;-74
2022/08/26 03:15:00;;;;;;;19.70;10.60;;;21.20;99.90;;;;;;5070203;28;20056;-74
2022/08/26 03:17:25;;;;;;;23.52;10.50;;;21.20;99.90;;;;;;5070370;28;20150;-73
2022/08/26 03:19:51;;;;;;;24.20;11.43;;;21.50;99.90;;;;;;5069873;28;20088;-75
2022/08/26 03:22:16;;;;;;;23.58;10.82;;;21.20;99.90;;;;;;5070625;28;20040;-75
2022/08/26 03:24:42;;;;;;;21.40;10.40;;;21.20;99.90;;;;;;5070256;28;20492;-74
2022/08/26 03:27:08;;;;;;;21.02;10.38;;;21.60;99.90;;;;;;5069039;28;20041;-74
2022/08/26 03:32:19;;;;;;;24.10;9.90;;;21.20;99.90;;;;;;5069825;28;20051;-73
2022/08/26 03:34:45;;;;;;;25.23;10.27;;;21.20;99.90;;;;;;5070374;28;20041;-73
2022/08/26 03:37:11;;;;;;;22.13;10.07;;;21.20;99.90;;;;;;5070561;28;20127;-73
2022/08/26 03:39:36;;;;;;;18.05;9.15;;;21.20;99.90;;;;;;5069857;28;20116;-74
2022/08/26 03:42:02;;;;;;;24.23;8.77;;;21.20;99.90;;;;;;5070338;28;20498;-74
2022/08/26 03:44:28;;;;;;;19.10;8.23;;;21.20;99.90;;;;;;5068800;28;20048;-73
2022/08/26 03:46:54;;;;;;;19.83;8.75;;;21.20;99.90;;;;;;5069732;28;20040;-75
2022/08/26 03:49:19;;;;;;;18.73;8.57;;;21.20;99.90;;;;;;5068777;28;20499;-74
2022/08/26 03:51:46;;;;;;;18.35;9.30;;;21.20;99.90;;;;;;5070538;28;20079;-75
2022/08/26 03:54:11;;;;;;;15.95;8.98;;;21.20;99.90;;;;;;5068082;28;20049;-74
2022/08/26 03:56:37;;;;;;;14.98;8.18;;;21.20;99.90;;;;;;5052563;28;20040;-73
2022/08/26 03:59:03;;;;;;;19.33;8.70;;;21.30;99.90;;;;;;5052899;28;20817;-74
2022/08/26 04:01:29;;;;;;;16.63;7.25;;;21.10;99.90;;;;;;5068232;28;20514;-73
2022/08/26 04:03:58;;;;;;;14.77;7.50;;;21.10;99.90;;;;;;5070599;28;20129;-72
2022/08/26 04:06:30;;;;;;;21.20;8.15;;;21.20;99.90;;;;;;5064502;28;20400;-72
2022/08/26 04:08:57;;;;;;;18.55;7.10;;;21.30;99.90;;;;;;5071856;28;20111;-72
2022/08/26 04:11:27;;;;;;;14.25;8.18;;;21.20;99.90;;;;;;5064448;28;20127;-73
2022/08/26 04:13:53;;;;;;;23.38;8.52;;;21.10;99.90;;;;;;5073629;28;20048;-72
2022/08/26 04:16:19;;;;;;;18.25;8.02;;;21.60;99.90;;;;;;5072508;28;20392;-72
2022/08/26 04:18:44;;;;;;;14.07;7.53;;;21.10;99.90;;;;;;5072115;28;20076;-71
2022/08/26 04:21:11;;;;;;;12.10;7.35;;;21.10;99.90;;;;;;5073440;28;20081;-73
2022/08/26 04:23:37;;;;;;;17.67;7.55;;;21.10;99.90;;;;;;5072664;28;20393;-74
2022/08/26 04:26:03;;;;;;;19.05;7.25;;;21.10;99.90;;;;;;5073046;28;20049;-74
2022/08/26 04:28:30;;;;;;;17.55;6.80;;;21.10;99.90;;;;;;5072569;28;20041;-72
2022/08/26 04:30:56;;;;;;;19.75;6.85;;;21.10;99.90;;;;;;5071918;28;20051;-72
2022/08/26 04:33:22;;;;;;;17.83;7.28;;;21.40;99.90;;;;;;5072225;28;20373;-72
2022/08/26 04:35:48;;;;;;;18.13;6.78;;;21.30;99.90;;;;;;5072596;28;20126;-71
2022/08/26 04:38:15;;;;;;;16.77;6.68;;;21.10;99.90;;;;;;5073245;28;20044;-71
2022/08/26 04:40:46;;;;;;;19.45;6.93;;;21.00;99.90;;;;;;5073325;28;20076;-71
2022/08/26 04:43:12;;;;;;;14.40;6.95;;;21.00;99.90;;;;;;5072525;28;20044;-72
2022/08/26 04:45:40;;;;;;;16.85;6.68;;;20.90;99.90;;;;;;5072689;28;20052;-71
2022/08/26 04:48:06;;;;;;;17.63;7.25;;;21.00;99.90;;;;;;5073269;28;20036;-72
2022/08/26 04:50:31;;;;;;;18.85;6.82;;;20.90;99.90;;;;;;5072387;28;20040;-72
2022/08/26 04:52:57;;;;;;;17.35;6.47;;;20.80;99.90;;;;;;5072919;28;20090;-73
2022/08/26 04:55:24;;;;;;;16.95;6.05;;;21.00;99.90;;;;;;5071434;28;20047;-74
2022/08/26 04:57:50;;;;;;;16.33;6.18;;;20.90;99.90;;;;;;5072306;28;20124;-73
2022/08/26 05:00:16;;;;;;;16.25;6.47;;;20.80;99.90;;;;;;5072508;28;20114;-72
2022/08/26 05:02:42;;;;;;;14.95;6.60;;;20.80;99.90;;;;;;5071801;28;20079;-72
2022/08/26 05:05:09;;;;;;;17.13;6.22;;;20.90;99.90;;;;;;5070741;28;20088;-72
2022/08/26 05:07:35;;;;;;;20.45;6.80;;;20.80;99.90;;;;;;5071508;28;20036;-72
2022/08/26 05:10:01;;;;;;;15.82;6.05;;;20.80;99.90;;;;;;5072452;28;20048;-72
2022/08/26 05:12:28;;;;;;;12.75;5.68;;;20.80;99.90;;;;;;5063696;28;20045;-72
2022/08/26 05:14:53;;;;;;;14.95;5.80;;;20.70;99.90;;;;;;5070659;28;20053;-72
2022/08/26 05:17:19;;;;;;;20.52;6.53;;;20.80;99.90;;;;;;5072224;28;20036;-73
2022/08/26 05:19:46;;;;;;;21.90;5.57;;;20.80;99.90;;;;;;5072367;28;20083;-72
2022/08/26 05:22:12;;;;;;;14.35;5.55;;;20.80;99.90;;;;;;5072512;28;20047;-73
2022/08/26 05:24:38;;;;;;;16.42;5.60;;;20.80;99.90;;;;;;5071352;28;20441;-73
2022/08/26 05:27:04;;;;;;;19.60;6.85;;;20.80;99.90;;;;;;5072098;28;20094;-73
2022/08/26 05:29:29;;;;;;;18.30;6.40;;;20.80;99.90;;;;;;5054039;28;20083;-73
2022/08/26 05:31:55;;;;;;;19.65;6.45;;;20.80;99.90;;;;;;5071407;28;20525;-75
2022/08/26 05:34:21;;;;;;;16.08;5.13;;;20.80;99.90;;;;;;5072016;28;20119;-73
2022/08/26 05:36:47;;;;;;;12.93;5.40;;;20.80;99.90;;;;;;5070976;28;20044;-73
2022/08/26 05:39:12;;;;;;;13.50;5.18;;;20.80;99.90;;;;;;5071304;28;20044;-73
2022/08/26 05:41:40;;;;;;;17.20;5.60;;;20.80;99.90;;;;;;5071072;28;20040;-71
2022/08/26 05:44:10;;;;;;;17.63;6.20;;;20.80;99.90;;;;;;5071627;28;20040;-72
2022/08/26 05:46:37;;;;;;;21.13;8.70;;;20.90;99.90;;;;;;5069993;28;20095;-73
2022/08/26 05:49:04;;;;;;;18.38;9.27;;;20.90;99.90;;;;;;5071800;28;20055;-74
2022/08/26 05:51:30;;;;;;;15.63;5.47;;;21.30;99.90;;;;;;5063720;28;20036;-73
2022/08/26 05:53:56;;;;;;;15.07;5.13;;;20.90;99.90;;;;;;5071002;28;20041;-73
2022/08/26 05:56:26;;;;;;;16.45;5.55;;;20.90;99.90;;;;;;5070376;28;20465;-73
2022/08/26 05:58:53;;;;;;;19.55;5.75;;;20.90;99.90;;;;;;5070393;28;20040;-74
2022/08/26 06:01:24;;;;;;;11.68;4.60;;;20.90;99.90;;;;;;5070701;28;20083;-72
2022/08/26 06:03:51;;;;;;;20.95;4.95;;;20.90;99.90;;;;;;5053511;28;20052;-73
2022/08/26 06:06:25;;;;;;;11.98;5.18;;;21.40;99.90;;;;;;5071604;28;20048;-73
2022/08/26 06:08:51;;;;;;;15.23;4.75;;;20.90;99.90;;;;;;5070848;28;20111;-74
2022/08/26 06:11:23;;;;;;;12.50;5.15;;;21.00;99.90;;;;;;5071403;28;20050;-74
2022/08/26 06:13:48;;;;;;;12.93;4.10;;;21.10;99.90;;;;;;5070757;28;20098;-74
2022/08/26 06:16:16;;;;;;;14.40;4.80;;;21.00;99.90;;;;;;5070190;28;20044;-72
2022/08/26 06:18:43;;;;;;;19.95;5.50;;;20.90;99.90;;;;;;5071230;28;20032;-73
2022/08/26 06:21:29;;;;;;;15.90;4.40;;;20.90;99.90;;;;;;5070785;28;20538;-73
2022/08/26 06:26:51;;;;;;;22.58;11.00;;;20.90;99.90;;;;;;5064563;28;20416;-71
2022/08/26 06:29:20;;;;;;;13.52;4.45;;;20.90;99.90;;;;;;5070204;28;20106;-72
2022/08/26 06:31:46;;;;;;;18.88;4.70;;;21.40;99.90;;;;;;5070023;28;20045;-72
2022/08/26 06:34:12;;;;;;;13.77;4.03;;;20.80;99.90;;;;;;5053118;28;20447;-72
2022/08/26 06:36:41;;;;;;;19.40;4.15;;;21.00;99.90;;;;;;5069351;28;20037;-74
2022/08/26 06:39:09;;;;;;;17.00;3.70;;;21.10;99.90;;;;;;5071282;28;20051;-73
2022/08/26 06:41:36;;;;;;;10.45;3.08;;;21.40;99.90;;;;;;5063121;28;20112;-72
2022/08/26 06:44:04;;;;;;;16.90;3.97;;;20.90;99.90;;;;;;5070118;28;20041;-71
2022/08/26 06:46:30;;;;;;;14.55;3.90;;;21.50;99.90;;;;;;5069752;28;20040;-72
2022/08/26 06:48:59;;;;;;;12.88;3.47;;;20.90;99.90;;;;;;5052850;28;20076;-72
2022/08/26 06:51:31;;;;;;;15.27;3.45;;;20.90;99.90;;;;;;5071043;28;20048;-72
2022/08/26 06:53:59;;;;;;;13.30;3.63;;;20.90;99.90;;;;;;5070725;28;20045;-73
2022/08/26 06:56:28;;;;;;;19.73;3.88;;;20.90;99.90;;;;;;5068818;28;20055;-72
2022/08/26 06:58:54;;;;;;;12.15;3.53;;;21.20;99.90;;;;;;5070962;28;20119;-73
2022/08/26 07:01:29;;;;;;;13.13;3.83;;;20.80;99.90;;;;;;5070913;28;20559;-73
2022/08/26 07:03:57;;;;;;;11.60;3.72;;;20.80;99.90;;;;;;5070137;28;20068;-72
2022/08/26 07:06:24;;;;;;;11.90;3.30;;;20.80;99.90;;;;;;5070582;28;20037;-72
2022/08/26 07:08:52;;;;;;;10.73;3.08;;;21.10;99.90;;;;;;5070645;28;20400;-73
2022/08/26 07:11:18;;;;;;;9.30;2.53;;;21.10;99.90;;;;;;5069151;28;20044;-72
2022/08/26 07:13:45;;;;;;;16.85;3.25;;;20.80;99.90;;;;;;5070598;28;20488;-73
2022/08/26 07:16:13;;;;;;;12.95;2.92;;;20.80;99.90;;;;;;5071011;28;20045;-74
2022/08/26 07:18:41;;;;;;;13.85;2.83;;;20.80;99.90;;;;;;5069989;28;20104;-73
2022/08/26 07:21:10;;;;;;;11.50;3.08;;;20.80;99.90;;;;;;5070645;28;20032;-73
2022/08/26 07:23:37;;;;;;;10.13;2.65;;;20.80;99.90;;;;;;5070722;28;20139;-72
2022/08/26 07:26:14;;;;;;;8.93;2.65;;;20.80;99.90;;;;;;5051633;28;20040;-73
2022/08/26 07:28:39;;;;;;;7.82;2.33;;;20.80;99.90;;;;;;5060997;28;20048;-73
2022/08/26 07:31:07;;;;;;;11.32;2.53;;;20.90;99.90;;;;;;5066646;28;20051;-73
2022/08/26 07:33:34;;;;;;;10.65;2.70;;;20.80;99.90;;;;;;5052499;28;20040;-73
2022/08/26 07:35:59;;;;;;;7.97;2.15;;;20.80;99.90;;;;;;5069243;28;20044;-73
2022/08/26 07:38:25;;;;;;;10.40;2.47;;;20.80;99.90;;;;;;5068917;28;20048;-72
2022/08/26 07:40:51;;;;;;;8.80;2.30;;;20.80;99.90;;;;;;5074394;28;20033;-73
2022/08/26 07:43:17;;;;;;;7.75;1.83;;;20.80;99.90;;;;;;5073049;28;20039;-73
2022/08/26 07:45:43;;;;;;;11.00;1.98;;;21.30;99.90;;;;;;5073231;28;20124;-72
2022/08/26 07:48:09;;;;;;;8.60;2.28;;;20.80;99.90;;;;;;5074194;28;20107;-73
2022/08/26 07:50:35;;;;;;;13.43;2.10;;;20.80;99.90;;;;;;5073577;28;20436;-74
2022/08/26 07:53:01;;;;;;;14.63;2.63;;;20.60;99.90;;;;;;5074284;28;20441;-72
2022/08/26 07:55:29;;;;;;;9.88;1.77;;;20.80;99.90;;;;;;5072662;28;20115;-73
2022/08/26 07:57:55;;;;;;;10.63;2.05;;;21.20;99.90;;;;;;5073427;28;20037;-72
2022/08/26 08:00:21;;;;;;;13.32;2.63;;;20.20;99.90;;;;;;5072503;28;20044;-72
2022/08/26 08:02:47;;;;;;;10.63;1.70;;;20.90;99.90;;;;;;5074305;28;20040;-72
2022/08/26 08:05:15;;;;;;;8.43;1.45;;;20.80;99.90;;;;;;5072909;28;20071;-73
2022/08/26 08:07:44;;;;;;;9.85;1.63;;;20.80;99.90;;;;;;5064854;28;20040;-72
2022/08/26 08:10:14;;;;;;;6.63;1.35;;;21.60;99.90;;;;;;5072567;28;20369;-74
2022/08/26 08:12:40;;;;;;;7.63;1.35;;;20.80;99.90;;;;;;5073175;28;20028;-74
2022/08/26 08:15:07;;;;;;;7.90;1.58;;;21.20;99.90;;;;;;5073645;28;20066;-74
2022/08/26 08:17:35;;;;;;;10.27;1.73;;;20.70;99.90;;;;;;5073498;28;20037;-74
2022/08/26 08:20:03;;;;;;;9.63;1.40;;;20.70;99.90;;;;;;5071694;28;20059;-74
2022/08/26 08:22:29;;;;;;;9.90;1.63;;;20.70;99.90;;;;;;5073747;28;20435;-73
2022/08/26 08:24:54;;;;;;;6.95;1.30;;;20.70;99.90;;;;;;5073220;28;20480;-72
2022/08/26 08:27:20;;;;;;;7.38;1.45;;;20.70;99.90;;;;;;5072824;28;20472;-72
2022/08/26 08:29:46;;;;;;;14.25;1.80;;;20.70;99.90;;;;;;5072113;28;20399;-72
2022/08/26 08:32:12;;;;;;;7.60;1.55;;;21.10;99.90;;;;;;5073995;28;20472;-74
2022/08/26 08:34:38;;;;;;;5.03;1.23;;;20.70;99.90;;;;;;5072373;28;20475;-72
2022/08/26 08:37:05;;;;;;;7.35;1.30;;;20.70;99.90;;;;;;5073539;28;20036;-72
2022/08/26 08:39:31;;;;;;;11.05;1.67;;;20.60;99.90;;;;;;5073335;28;20476;-74
2022/08/26 08:42:24;;;;;;;5.45;1.33;;;20.60;99.90;;;;;;5072419;28;20035;-72
2022/08/26 08:44:54;;;;;;;8.68;1.17;;;20.60;99.90;;;;;;5065291;28;20040;-71
2022/08/26 08:47:38;;;;;;;7.75;1.80;;;20.60;99.90;;;;;;5072780;28;20058;-72
2022/08/26 08:50:20;;;;;;;7.15;1.30;;;20.60;99.90;;;;;;5066286;28;20531;-71
2022/08/26 08:53:01;;;;;;;8.98;1.33;;;20.60;99.90;;;;;;5072917;28;20420;-72
2022/08/26 08:55:39;;;;;;;9.30;2.08;;;20.50;99.90;;;;;;5071854;28;20127;-71
2022/08/26 08:58:10;;;;;;;7.63;1.35;;;20.50;99.90;;;;;;5073144;28;20032;-72
2022/08/26 09:00:45;;;;;;;8.90;1.52;;;20.60;99.90;;;;;;5072939;28;20087;-73
2022/08/26 09:03:41;;;;;;;11.45;1.77;;;20.60;99.90;;;;;;5072169;28;20534;-73
2022/08/26 09:06:15;;;;;;;8.10;1.35;;;20.60;99.90;;;;;;5066028;28;20040;-71
2022/08/26 09:08:43;;;;;;;7.63;1.13;;;20.30;99.90;;;;;;5071905;28;20052;-72
2022/08/26 09:11:09;;;;;;;15.70;2.42;;;20.60;99.90;;;;;;5072788;28;20040;-72
2022/08/26 09:13:37;;;;;;;6.18;1.55;;;20.70;99.90;;;;;;5072397;28;20047;-72
2022/08/26 09:16:09;;;;;;;9.63;1.95;;;20.60;99.90;;;;;;5071940;28;20040;-71
2022/08/26 09:18:40;;;;;;;12.30;2.20;;;20.70;99.90;;;;;;5072769;28;20090;-73
2022/08/26 09:21:09;;;;;;;10.75;1.88;;;20.70;99.90;;;;;;5072662;28;20067;-71
2022/08/26 09:23:38;;;;;;;12.75;1.80;;;20.70;99.90;;;;;;5070668;28;20055;-74
2022/08/26 09:26:27;;;;;;;10.23;1.67;;;20.80;99.90;;;;;;5072111;28;20119;-74
2022/08/26 09:28:56;;;;;;;11.70;1.60;;;20.80;99.90;;;;;;5061114;28;20667;-75
2022/08/26 09:31:31;;;;;;;8.88;1.80;;;20.80;99.90;;;;;;5071080;28;20045;-73
2022/08/26 09:34:26;;;;;;;11.90;1.70;;;20.70;99.90;;;;;;5064557;28;20033;-75
2022/08/26 09:36:57;;;;;;;9.40;1.95;;;20.80;99.90;;;;;;5059042;28;20493;-74
2022/08/26 09:39:22;;;;;;;9.35;2.08;;;20.80;99.90;;;;;;5072097;28;20554;-74
2022/08/26 09:42:19;;;;;;;8.82;1.60;;;20.90;99.90;;;;;;5071903;28;20032;-73
2022/08/26 09:45:07;;;;;;;11.60;1.80;;;20.90;99.90;;;;;;5069851;28;20397;-73
2022/08/26 09:47:52;;;;;;;11.18;1.65;;;20.80;99.90;;;;;;5071914;28;20126;-74
2022/08/26 09:50:32;;;;;;;9.60;2.03;;;20.80;99.90;;;;;;5071156;28;20044;-74
2022/08/26 09:53:20;;;;;;;8.38;1.80;;;20.80;99.90;;;;;;5064770;28;20037;-73
2022/08/26 09:55:49;;;;;;;9.82;1.70;;;20.80;99.90;;;;;;5071326;28;20404;-74
2022/08/26 09:58:30;;;;;;;7.03;1.58;;;20.90;99.90;;;;;;5069637;28;20115;-73
2022/08/26 10:01:00;;;;;;;8.15;1.92;;;20.90;99.90;;;;;;5064113;28;20041;-72
2022/08/26 10:03:28;;;;;;;8.85;1.80;;;20.90;99.90;;;;;;5071429;28;20035;-74
2022/08/26 10:06:02;;;;;;;9.88;1.80;;;21.20;99.90;;;;;;5062830;28;20051;-74
2022/08/26 10:08:36;;;;;;;9.48;1.48;;;20.90;99.90;;;;;;5071614;28;20083;-74
2022/08/26 10:11:04;;;;;;;;;;;20.80;99.90;;;;;;5064976;28;20040;-73
2022/08/26 10:13:30;;;;;;;9.55;1.70;;;20.80;99.90;;;;;;5069320;28;19920;-73
2022/08/26 10:16:04;;;;;;;7.68;1.27;;;20.80;99.90;;;;;;5071421;28;20036;-72
2022/08/26 10:18:40;;;;;;;8.85;1.70;;;20.80;99.90;;;;;;5070621;28;20055;-72
2022/08/26 10:21:11;;;;;;;8.77;1.02;;;20.80;99.90;;;;;;5071280;28;20046;-72
2022/08/26 10:23:44;;;;;;;7.53;1.75;;;21.30;99.90;;;;;;5069656;28;20079;-72
2022/08/26 10:26:37;;;;;;;6.95;1.60;;;20.80;99.90;;;;;;5070846;28;20032;-72
2022/08/26 10:29:28;;;;;;;10.35;2.00;;;20.70;99.90;;;;;;5070969;28;20048;-72
2022/08/26 10:32:05;;;;;;;12.95;1.63;;;21.50;99.90;;;;;;5071081;28;20056;-72
2022/08/26 10:34:32;;;;;;;13.27;1.63;;;20.70;99.90;;;;;;5070494;28;20139;-73
2022/08/26 10:37:12;;;;;;;11.23;1.60;;;20.80;99.90;;;;;;5070045;28;20466;-72
2022/08/26 10:39:53;;;;;;;10.65;1.70;;;20.70;99.90;;;;;;5070492;28;20044;-74
2022/08/26 10:42:40;;;;;;;7.40;1.65;;;20.70;99.90;;;;;;5071201;28;20040;-72
2022/08/26 10:45:08;;;;;;;8.48;1.25;;;20.60;99.90;;;;;;5062744;28;20438;-72
2022/08/26 10:47:48;;;;;;;7.05;1.40;;;20.60;99.90;;;;;;5070449;28;20416;-72
2022/08/26 10:50:14;;;;;;;11.07;2.20;;;20.60;99.90;;;;;;5070789;28;20473;-72
2022/08/26 10:52:59;;;;;;;9.48;1.63;;;20.70;99.90;;;;;;5069813;28;20116;-73
2022/08/26 10:55:42;;;;;;;12.88;2.00;;;21.00;99.90;;;;;;5070387;28;20033;-72
2022/08/26 10:58:16;;;;;;;7.57;1.48;;;20.80;99.90;;;;;;5064478;28;20033;-73
2022/08/26 11:03:55;;;;;;;7.75;1.30;;;20.80;99.90;;;;;;5069286;28;20075;-72
2022/08/26 11:06:23;;;;;;;8.30;1.65;;;20.80;99.90;;;;;;5070989;28;20039;-74
2022/08/26 11:08:55;;;;;;;12.43;1.60;;;20.80;99.90;;;;;;5070118;28;20083;-71
2022/08/26 11:11:39;;;;;;;6.32;1.13;;;21.30;99.90;;;;;;5069550;28;20048;-73
2022/08/26 11:14:05;;;;;;;5.43;1.13;;;20.80;99.90;;;;;;5064663;28;20613;-72
2022/08/26 11:16:41;;;;;;;7.60;1.10;;;20.80;99.90;;;;;;5074287;28;20041;-72
2022/08/26 11:19:08;;;;;;;4.93;1.48;;;20.80;99.90;;;;;;5067844;28;20037;-72
2022/08/26 11:21:46;;;;;;;10.27;1.40;;;20.80;99.90;;;;;;5074009;28;20044;-72
2022/08/26 11:24:38;;;;;;;13.00;1.45;;;20.90;99.90;;;;;;5068030;28;20033;-72
2022/08/26 11:27:05;;;;;;;9.18;1.50;;;20.90;99.90;;;;;;5067178;28;20075;-72
2022/08/26 11:30:05;;;;;;;6.82;1.15;;;20.90;99.90;;;;;;5073947;28;20049;-72
2022/08/26 11:32:33;;;;;;;7.00;1.35;;;20.90;99.90;;;;;;5070737;28;20032;-73
2022/08/26 11:35:25;;;;;;;3.17;0.93;;;20.90;99.90;;;;;;5074126;28;20066;-72
2022/08/26 11:37:55;;;;;;;8.18;1.13;;;20.90;99.90;;;;;;5069567;28;20480;-73
2022/08/26 11:40:25;;;;;;;6.88;1.20;;;21.10;99.90;;;;;;5074411;28;20124;-73
2022/08/26 11:43:01;;;;;;;6.38;1.55;;;20.90;99.90;;;;;;5073766;28;20159;-73
2022/08/26 11:45:40;;;;;;;6.50;1.20;;;20.90;99.90;;;;;;5073910;28;20053;-74
2022/08/26 11:48:29;;;;;;;10.32;2.13;;;20.90;99.90;;;;;;5066497;28;20488;-74
2022/08/26 11:50:57;;;;;;;8.80;1.48;;;20.90;99.90;;;;;;5073368;28;20447;-74
2022/08/26 11:53:24;;;;;;;6.65;2.53;;;20.90;99.90;;;;;;5073776;28;20131;-73
2022/08/26 11:55:52;;;;;;;5.32;1.00;;;20.90;99.90;;;;;;5074063;28;20072;-73
2022/08/26 11:58:25;;;;;;;10.88;1.65;;;20.90;99.90;;;;;;5071889;28;20144;-73
2022/08/26 12:00:56;;;;;;;6.90;1.33;;;20.80;99.90;;;;;;5074178;28;20097;-72
2022/08/26 12:03:30;;;;;;;5.35;0.80;;;20.80;99.90;;;;;;5072585;28;20068;-73
2022/08/26 12:05:56;;;;;;;6.85;1.27;;;20.80;99.90;;;;;;5073252;28;20048;-73
2022/08/26 12:08:25;;;;;;;7.78;1.38;;;20.80;99.90;;;;;;5074219;28;20041;-74
2022/08/26 12:11:07;;;;;;;8.55;1.45;;;20.80;99.90;;;;;;5073109;28;20041;-72
2022/08/26 12:13:34;;;;;;;3.97;1.33;;;20.70;99.90;;;;;;5073723;28;20044;-72
2022/08/26 12:16:00;;;;;;;7.80;1.42;;;20.70;99.90;;;;;;5074004;28;20045;-74
2022/08/26 12:18:34;;;;;;;5.25;1.23;;;20.70;99.90;;;;;;5073029;28;20116;-74
2022/08/26 12:21:11;;;;;;;4.90;1.35;;;20.70;99.90;;;;;;5073617;28;20123;-74
2022/08/26 12:23:45;;;;;;;7.30;1.52;;;20.60;99.90;;;;;;5073089;28;20484;-73
2022/08/26 12:26:26;;;;;;;9.50;1.77;;;20.60;99.90;;;;;;5064179;28;20480;-73
2022/08/26 12:28:57;;;;;;;9.43;1.60;;;20.60;99.90;;;;;;5073187;28;20135;-74
2022/08/26 12:31:39;;;;;;;4.82;1.85;;;20.50;99.90;;;;;;5073414;28;20048;-75
2022/08/26 12:34:08;;;;;;;6.78;1.92;;;20.50;99.90;;;;;;5072392;28;20058;-72
2022/08/26 12:36:36;;;;;;;7.57;1.63;;;20.50;99.90;;;;;;5073506;28;20083;-72
2022/08/26 12:39:29;;;;;;;12.70;1.90;;;20.40;99.90;;;;;;5071205;28;20040;-72
2022/08/26 12:41:58;;;;;;;4.82;1.17;;;20.40;99.90;;;;;;5072983;28;20068;-72
2022/08/26 12:44:44;;;;;;;8.25;1.35;;;20.40;99.90;;;;;;5071993;28;20131;-72
2022/08/26 12:47:31;;;;;;;7.38;1.80;;;20.40;99.90;;;;;;5046966;28;20496;-72
2022/08/26 12:50:18;;;;;;;7.13;1.40;;;20.40;99.90;;;;;;5072966;28;20040;-72
2022/08/26 12:53:08;;;;;;;7.28;2.00;;;20.40;99.90;;;;;;5072791;28;20059;-72
2022/08/26 12:55:38;;;;;;;4.97;1.40;;;20.30;99.90;;;;;;5073202;28;20052;-72
2022/08/26 12:58:23;;;;;;;4.93;1.33;;;20.30;99.90;;;;;;5072990;28;20029;-72
2022/08/26 13:00:52;;;;;;;9.43;1.50;;;20.30;99.90;;;;;;5072228;28;20049;-71
2022/08/26 13:03:34;;;;;;;5.10;1.52;;;20.30;99.90;;;;;;5072486;28;20112;-72